Time;durP1;ratioP1;P1;durP2;ratioP2;P2;SDS_P1;SDS_P2;PMS_P1;PMS_P2;Temp;Humidity;BMP_temperature;BMP_pressure;BME280_temperature;BME280_humidity;BME280_pressure;Samples;Min_cycle;Max_cycle;Signal;HPM_P1;HPM_P2
2021/07/22 00:00:05;;;;;;;;;;;;;;;26.54;45.55;100727.16;1772794;79;20220;-57
2021/07/22 00:02:32;;;;;;;;;;;;;;;26.55;45.59;100724.59;1760986;80;20150;-57
2021/07/22 00:04:58;;;;;;;;;;;;;;;26.55;45.62;100725.41;1769660;80;20791;-56
2021/07/22 00:07:24;;;;;;;;;;;;;;;26.56;45.68;100717.85;1767499;80;20145;-57
2021/07/22 00:09:50;;;;;;;;;;;;;;;26.56;45.74;100728.43;1770175;80;20524;-57
2021/07/22 00:12:16;;;;;;;;;;;;;;;26.56;45.78;100725.64;1760810;79;20242;-57
2021/07/22 00:14:42;;;;;;;;;;;;;;;26.57;45.83;100727.23;1769480;79;21095;-57
2021/07/22 00:17:08;;;;;;;;;;;;;;;26.58;45.87;100730.27;1765322;79;20762;-57
2021/07/22 00:19:35;;;;;;;;;;;;;;;26.59;45.93;100732.47;1766706;80;20224;-56
2021/07/22 00:22:00;;;;;;;;;;;;;;;26.60;45.97;100735.49;1769912;80;20235;-56
2021/07/22 00:24:26;;;;;;;;;;;;;;;26.61;46.02;100738.48;1766622;80;20989;-57
2021/07/22 00:26:52;;;;;;;;;;;;;;;26.61;46.07;100738.48;1769167;80;21806;-57
2021/07/22 00:29:18;;;;;;;;;;;;;;;26.61;46.11;100737.91;1763153;79;20183;-56
2021/07/22 00:31:44;;;;;;;;;;;;;;;26.61;46.17;100736.51;1766854;80;20282;-57
2021/07/22 00:34:10;;;;;;;;;;;;;;;26.61;46.22;100730.92;1766364;79;20203;-57
2021/07/22 00:36:36;;;;;;;;;;;;;;;26.62;46.27;100734.53;1771529;80;20725;-56
2021/07/22 00:39:02;;;;;;;;;;;;;;;26.63;46.33;100738.95;1763232;80;21200;-57
2021/07/22 00:41:28;;;;;;;;;;;;;;;26.63;46.38;100729.18;1766781;80;20403;-57
2021/07/22 00:43:54;;;;;;;;;;;;;;;26.63;46.42;100736.16;1773088;79;20811;-57
2021/07/22 00:46:20;;;;;;;;;;;;;;;26.63;46.48;100740.34;1774657;80;20820;-56
2021/07/22 00:48:47;;;;;;;;;;;;;;;26.63;46.52;100735.58;1773351;80;20324;-57
2021/07/22 00:51:13;;;;;;;;;;;;;;;26.64;46.54;100739.19;1770770;80;21064;-57
2021/07/22 00:53:39;;;;;;;;;;;;;;;26.64;46.59;100738.59;1773307;80;20324;-56
2021/07/22 00:56:05;;;;;;;;;;;;;;;26.64;46.64;100738.59;1775882;79;20230;-56
2021/07/22 00:58:31;;;;;;;;;;;;;;;26.64;46.69;100738.59;1773314;79;20144;-57
2021/07/22 01:00:57;;;;;;;;;;;;;;;26.65;46.73;100745.00;1772518;79;20470;-57
2021/07/22 01:03:23;;;;;;;;;;;;;;;26.65;46.76;100740.81;1771547;80;21915;-56
2021/07/22 01:05:49;;;;;;;;;;;;;;;26.65;46.82;100741.59;1772405;79;20217;-56
2021/07/22 01:08:15;;;;;;;;;;;;;;;26.65;46.85;100742.20;1771324;79;20199;-56
2021/07/22 01:10:40;;;;;;;;;;;;;;;26.64;46.90;100748.37;1771759;79;20186;-56
2021/07/22 01:13:06;;;;;;;;;;;;;;;26.65;46.94;100751.97;1773072;79;20710;-55
2021/07/22 01:15:32;;;;;;;;;;;;;;;26.65;46.97;100751.97;1769032;79;20808;-56
2021/07/22 01:17:58;;;;;;;;;;;;;;;26.65;47.03;100756.94;1771970;79;20162;-56
2021/07/22 01:20:25;;;;;;;;;;;;;;;26.65;47.05;100753.37;1772401;80;20171;-55
2021/07/22 01:22:54;;;;;;;;;;;;;;;26.66;47.11;100754.97;1769974;79;20171;-56
2021/07/22 01:25:20;;;;;;;;;;;;;;;26.65;47.15;100751.97;1771026;80;20194;-55
2021/07/22 01:27:46;;;;;;;;;;;;;;;26.66;47.17;100754.97;1770024;79;21128;-56
2021/07/22 01:30:13;;;;;;;;;;;;;;;26.66;47.22;100754.97;1773144;80;21649;-56
2021/07/22 01:32:39;;;;;;;;;;;;;;;26.65;47.25;100752.75;1772665;79;20463;-56
2021/07/22 01:35:07;;;;;;;;;;;;;;;26.65;47.29;100744.38;1770435;79;20707;-56
2021/07/22 01:37:34;;;;;;;;;;;;;;;26.65;47.34;100745.00;1770975;79;20554;-56
2021/07/22 01:40:00;;;;;;;;;;;;;;;26.66;47.37;100753.56;1773614;80;21139;-55
2021/07/22 01:42:25;;;;;;;;;;;;;;;26.65;47.39;100750.58;1771789;79;20729;-56
2021/07/22 01:44:51;;;;;;;;;;;;;;;26.65;47.44;100747.78;1773841;79;20178;-56
2021/07/22 01:47:17;;;;;;;;;;;;;;;26.65;47.48;100747.78;1771936;79;20559;-55
2021/07/22 01:49:43;;;;;;;;;;;;;;;26.65;47.52;100754.77;1771369;79;20224;-56
2021/07/22 01:52:10;;;;;;;;;;;;;;;26.64;47.56;100750.34;1773017;79;21259;-56
2021/07/22 01:54:36;;;;;;;;;;;;;;;26.64;47.60;100742.78;1774089;80;20172;-56
2021/07/22 01:57:02;;;;;;;;;;;;;;;26.65;47.62;100740.81;1771466;79;20238;-56
2021/07/22 01:59:35;;;;;;;;;;;;;;;26.65;47.66;100739.41;1772005;80;20426;-56
2021/07/22 02:01:56;;;;;;;;;;;;;;;26.65;47.69;100743.60;1773649;79;20215;-56
2021/07/22 02:04:22;;;;;;;;;;;;;;;26.65;47.74;100741.59;1769950;80;21314;-56
2021/07/22 02:06:48;;;;;;;;;;;;;;;26.64;47.78;100740.00;1773435;79;20202;-56
2021/07/22 02:09:14;;;;;;;;;;;;;;;26.64;47.82;100739.19;1773605;79;20189;-56
2021/07/22 02:11:40;;;;;;;;;;;;;;;26.63;47.84;100743.13;1771865;78;20149;-56
2021/07/22 02:14:05;;;;;;;;;;;;;;;26.63;47.90;100741.16;1774776;80;20451;-55
2021/07/22 02:16:31;;;;;;;;;;;;;;;26.63;47.93;100737.55;1779177;80;21126;-55
2021/07/22 02:18:57;;;;;;;;;;;;;;;26.63;47.96;100740.34;1782466;80;20198;-56
2021/07/22 02:21:23;;;;;;;;;;;;;;;26.63;48.01;100737.55;1784558;80;20249;-56
2021/07/22 02:23:49;;;;;;;;;;;;;;;26.63;48.05;100738.37;1777904;80;20167;-56
2021/07/22 02:26:15;;;;;;;;;;;;;;;26.62;48.06;100736.73;1783785;80;20162;-56
2021/07/22 02:28:41;;;;;;;;;;;;;;;26.62;48.09;100742.32;1781458;80;21162;-56
2021/07/22 02:31:07;;;;;;;;;;;;;;;26.62;48.13;100738.13;1781111;80;20847;-55
2021/07/22 02:33:33;;;;;;;;;;;;;;;26.62;48.16;100736.73;1780603;80;20207;-56
2021/07/22 02:35:58;;;;;;;;;;;;;;;26.62;48.22;100740.92;1778502;80;20133;-57
2021/07/22 02:38:24;;;;;;;;;;;;;;;26.62;48.22;100736.73;1778862;80;20187;-56
2021/07/22 02:40:50;;;;;;;;;;;;;;;26.62;48.26;100738.72;1778317;79;21124;-56
2021/07/22 02:43:16;;;;;;;;;;;;;;;26.61;48.29;100742.67;1778787;80;20199;-56
2021/07/22 02:45:42;;;;;;;;;;;;;;;26.62;48.32;100746.51;1775554;80;20294;-56
2021/07/22 02:48:08;;;;;;;;;;;;;;;26.61;48.35;100748.25;1779239;80;20266;-56
2021/07/22 02:50:34;;;;;;;;;;;;;;;26.63;48.40;100745.92;1773628;80;20176;-56
2021/07/22 02:53:01;;;;;;;;;;;;;;;26.61;48.41;100744.88;1775192;80;21194;-55
2021/07/22 02:55:27;;;;;;;;;;;;;;;26.61;48.43;100742.09;1782455;80;20450;-56
2021/07/22 02:57:53;;;;;;;;;;;;;;;26.62;48.50;100740.92;1783594;80;20198;-55
2021/07/22 03:00:19;;;;;;;;;;;;;;;26.61;48.53;100743.48;1780132;80;22038;-56
2021/07/22 03:02:45;;;;;;;;;;;;;;;26.61;48.56;100746.27;1784485;80;20596;-56
2021/07/22 03:05:11;;;;;;;;;;;;;;;26.61;48.59;100749.06;1780743;80;21102;-56
2021/07/22 03:07:37;;;;;;;;;;;;;;;26.61;48.63;100746.86;1782020;80;20175;-55
2021/07/22 03:10:04;;;;;;;;;;;;;;;26.61;48.68;100756.63;1779586;80;20282;-56
2021/07/22 03:12:30;;;;;;;;;;;;;;;26.61;48.69;100754.65;1772752;79;20421;-56
2021/07/22 03:14:56;;;;;;;;;;;;;;;26.60;48.74;100746.66;1774838;79;20203;-55
2021/07/22 03:17:21;;;;;;;;;;;;;;;26.61;48.75;100746.86;1773908;79;21947;-55
2021/07/22 03:19:47;;;;;;;;;;;;;;;26.59;48.80;100748.63;1770927;79;20239;-56
2021/07/22 03:22:14;;;;;;;;;;;;;;;26.59;48.81;100753.40;1775953;80;20244;-55
2021/07/22 03:24:40;;;;;;;;;;;;;;;26.60;48.86;100759.21;1722518;80;20288;-56
2021/07/22 03:27:06;;;;;;;;;;;;;;;26.59;48.88;100752.81;1774297;80;20220;-55
2021/07/22 03:29:33;;;;;;;;;;;;;;;26.60;48.92;100758.63;1768217;79;21060;-56
2021/07/22 03:32:00;;;;;;;;;;;;;;;26.60;48.93;100763.39;1772713;79;20232;-56
2021/07/22 03:34:26;;;;;;;;;;;;;;;26.60;48.98;100769.80;1770850;80;20194;-56
2021/07/22 03:36:52;;;;;;;;;;;;;;;26.58;49.01;100766.53;1769903;79;20260;-56
2021/07/22 03:39:17;;;;;;;;;;;;;;;26.59;49.02;100772.93;1771499;79;20199;-56
2021/07/22 03:41:52;;;;;;;;;;;;;;;26.59;49.07;100770.14;1772928;80;21131;-56
2021/07/22 03:44:11;;;;;;;;;;;;;;;26.59;49.07;100768.16;1769899;80;20160;-55
2021/07/22 03:46:38;;;;;;;;;;;;;;;26.58;49.11;100778.28;1771665;80;20199;-56
2021/07/22 03:49:04;;;;;;;;;;;;;;;26.59;49.14;100776.53;1770738;79;20522;-56
2021/07/22 03:51:30;;;;;;;;;;;;;;;26.58;49.18;100771.30;1770685;79;20275;-56
2021/07/22 03:53:56;;;;;;;;;;;;;;;26.60;49.19;100774.56;1774393;80;20928;-55
2021/07/22 03:56:22;;;;;;;;;;;;;;;26.58;49.21;100768.52;1770486;79;20387;-55
2021/07/22 03:58:48;;;;;;;;;;;;;;;26.58;49.22;100774.09;1772860;79;20175;-55
2021/07/22 04:01:13;;;;;;;;;;;;;;;26.56;49.15;100769.47;1768899;79;20189;-56
2021/07/22 04:03:39;;;;;;;;;;;;;;;26.54;49.05;100764.82;1771326;80;20163;-56
2021/07/22 04:06:05;;;;;;;;;;;;;;;26.53;49.06;100764.00;1772943;79;21244;-55
2021/07/22 04:08:31;;;;;;;;;;;;;;;26.52;49.05;100769.97;1772086;79;20818;-56
2021/07/22 04:10:57;;;;;;;;;;;;;;;26.50;48.98;100772.29;1772490;79;20805;-56
2021/07/22 04:13:22;;;;;;;;;;;;;;;26.48;48.94;100770.45;1749780;80;20519;-56
2021/07/22 04:15:48;;;;;;;;;;;;;;;26.47;48.92;100766.04;1742294;81;20299;-56
2021/07/22 04:18:14;;;;;;;;;;;;;;;26.44;48.91;100759.80;1755637;81;21187;-56
2021/07/22 04:20:40;;;;;;;;;;;;;;;26.45;48.85;100771.16;1740956;81;20639;-56
2021/07/22 04:23:06;;;;;;;;;;;;;;;26.43;48.80;100766.53;1742916;81;20474;-56
2021/07/22 04:25:33;;;;;;;;;;;;;;;26.43;48.79;100770.72;1740957;81;20749;-56
2021/07/22 04:27:59;;;;;;;;;;;;;;;26.43;48.80;100766.53;1719922;81;20216;-56
2021/07/22 04:30:25;;;;;;;;;;;;;;;26.42;48.76;100771.88;1735104;81;21212;-57
2021/07/22 04:32:51;;;;;;;;;;;;;;;26.41;48.70;100765.48;1737641;81;20877;-56
2021/07/22 04:35:17;;;;;;;;;;;;;;;26.41;48.66;100766.88;1740374;81;20222;-56
2021/07/22 04:37:43;;;;;;;;;;;;;;;26.40;48.63;100773.63;1740285;81;20159;-56
2021/07/22 04:40:09;;;;;;;;;;;;;;;26.40;48.58;100765.83;1735334;81;20427;-56
2021/07/22 04:42:35;;;;;;;;;;;;;;;26.41;48.60;100768.86;1732684;81;20156;-56
2021/07/22 04:45:01;;;;;;;;;;;;;;;26.42;48.66;100767.11;1725932;81;20180;-56
2021/07/22 04:47:27;;;;;;;;;;;;;;;26.43;48.67;100773.51;1730717;81;20219;-56
2021/07/22 04:49:53;;;;;;;;;;;;;;;26.43;48.69;100770.14;1735948;81;20171;-59
2021/07/22 04:52:19;;;;;;;;;;;;;;;26.45;48.70;100783.70;1744666;81;21059;-53
2021/07/22 04:54:45;;;;;;;;;;;;;;;26.46;48.71;100781.16;1744502;81;21857;-56
2021/07/22 04:57:11;;;;;;;;;;;;;;;26.46;48.76;100772.20;1735423;81;20202;-58
2021/07/22 04:59:37;;;;;;;;;;;;;;;26.47;48.76;100776.62;1740986;81;20295;-56
2021/07/22 05:02:03;;;;;;;;;;;;;;;26.48;48.80;100774.64;1744502;81;20454;-58
2021/07/22 05:04:29;;;;;;;;;;;;;;;26.48;48.80;100781.00;1742997;81;20412;-57
2021/07/22 05:06:56;;;;;;;;;;;;;;;26.49;48.82;100778.45;1739142;81;21136;-57
2021/07/22 05:09:22;;;;;;;;;;;;;;;26.51;48.85;100778.10;1736449;81;20230;-56
2021/07/22 05:11:48;;;;;;;;;;;;;;;26.52;48.86;100774.94;1747085;81;20219;-55
2021/07/22 05:14:14;;;;;;;;;;;;;;;26.53;48.89;100779.94;1746077;80;20260;-55
2021/07/22 05:16:40;;;;;;;;;;;;;;;26.54;48.89;100782.37;1752091;80;20209;-58
2021/07/22 05:19:06;;;;;;;;;;;;;;;26.54;48.92;100780.98;1749648;80;21193;-58
2021/07/22 05:21:32;;;;;;;;;;;;;;;26.54;48.94;100778.19;1753478;80;20799;-54
2021/07/22 05:23:58;;;;;;;;;;;;;;;26.57;48.96;100783.63;1751627;80;20212;-53
2021/07/22 05:26:24;;;;;;;;;;;;;;;26.57;48.97;100785.02;1743125;80;20188;-58
2021/07/22 05:28:50;;;;;;;;;;;;;;;26.59;48.99;100788.28;1750993;80;20779;-58
2021/07/22 05:31:16;;;;;;;;;;;;;;;26.59;49.01;100781.30;1744541;80;21874;-57
2021/07/22 05:33:42;;;;;;;;;;;;;;;26.60;49.02;100782.93;1747830;81;20188;-56
2021/07/22 05:36:08;;;;;;;;;;;;;;;26.61;49.04;100785.34;1745844;80;20257;-57
2021/07/22 05:38:35;;;;;;;;;;;;;;;26.62;49.07;100791.73;1751375;80;20604;-57
2021/07/22 05:41:02;;;;;;;;;;;;;;;26.62;49.07;100790.34;1748391;80;20304;-57
2021/07/22 05:43:28;;;;;;;;;;;;;;;26.62;49.08;100787.55;1752967;80;21009;-58
2021/07/22 05:45:54;;;;;;;;;;;;;;;26.62;49.12;100788.37;1751088;80;20308;-57
2021/07/22 05:48:20;;;;;;;;;;;;;;;26.64;49.11;100801.97;1747331;80;20233;-56
2021/07/22 05:50:46;;;;;;;;;;;;;;;26.65;49.14;100798.02;1749820;80;20433;-57
2021/07/22 05:53:12;;;;;;;;;;;;;;;26.66;49.16;100794.84;1748168;80;20170;-57
2021/07/22 05:55:39;;;;;;;;;;;;;;;26.65;49.21;100793.22;1752125;80;20883;-57
2021/07/22 05:58:05;;;;;;;;;;;;;;;26.66;49.21;100796.83;1726476;81;20215;-57
2021/07/22 06:00:31;;;;;;;;;;;;;;;26.67;49.23;100792.87;1752266;80;20215;-57
2021/07/22 06:02:57;;;;;;;;;;;;;;;26.68;49.23;100790.31;1753397;80;20193;-59
2021/07/22 06:05:23;;;;;;;;;;;;;;;26.69;49.26;100800.31;1751289;80;20760;-56
2021/07/22 06:07:49;;;;;;;;;;;;;;;26.68;49.26;100795.31;1751017;80;21000;-57
2021/07/22 06:10:15;;;;;;;;;;;;;;;26.69;49.29;100798.31;1753329;80;20171;-58
2021/07/22 06:12:41;;;;;;;;;;;;;;;26.70;49.28;100794.94;1749598;80;20182;-57
2021/07/22 06:15:10;;;;;;;;;;;;;;;26.70;49.32;100792.14;1772304;79;20378;-57
2021/07/22 06:17:37;;;;;;;;;;;;;;;26.72;49.33;100798.19;1773116;79;20143;-57
2021/07/22 06:20:05;;;;;;;;;;;;;;;26.72;49.33;100796.80;1772812;80;21123;-57
2021/07/22 06:22:31;;;;;;;;;;;;;;;26.72;49.36;100796.22;1770055;79;20615;-57
2021/07/22 06:24:57;;;;;;;;;;;;;;;26.72;49.38;100795.41;1771556;79;20274;-57
2021/07/22 06:27:23;;;;;;;;;;;;;;;26.72;49.39;100796.80;1770076;80;20151;-57
2021/07/22 06:29:49;;;;;;;;;;;;;;;26.72;49.40;100801.80;1767798;79;20207;-57
2021/07/22 06:32:15;;;;;;;;;;;;;;;26.72;49.43;100797.61;1772995;80;21346;-56
2021/07/22 06:34:41;;;;;;;;;;;;;;;26.73;49.44;100802.61;1770957;80;20172;-56
2021/07/22 06:37:08;;;;;;;;;;;;;;;26.73;49.48;100805.41;1765857;80;20199;-56
2021/07/22 06:39:35;;;;;;;;;;;;;;;26.73;49.42;100809.59;1771694;80;20073;-57
2021/07/22 06:42:01;;;;;;;;;;;;;;;26.72;49.42;100804.59;1771824;80;20251;-57
2021/07/22 06:44:30;;;;;;;;;;;;;;;26.72;49.44;100812.15;1774461;80;21127;-57
2021/07/22 06:46:56;;;;;;;;;;;;;;;26.72;49.47;100802.38;1774344;79;20132;-56
2021/07/22 06:49:21;;;;;;;;;;;;;;;26.72;49.49;100810.17;1772075;80;20283;-56
2021/07/22 06:51:51;;;;;;;;;;;;;;;26.72;49.52;100807.96;1766978;79;20712;-57
2021/07/22 06:54:18;;;;;;;;;;;;;;;26.71;49.53;100808.54;1770020;80;20367;-57
2021/07/22 06:56:44;;;;;;;;;;;;;;;26.71;49.52;100809.13;1776094;80;20980;-57
2021/07/22 06:59:10;;;;;;;;;;;;;;;26.72;49.51;100810.75;1773334;80;20218;-57
2021/07/22 07:01:35;;;;;;;;;;;;;;;26.71;49.53;100815.52;1774734;80;20193;-57
2021/07/22 07:04:04;;;;;;;;;;;;;;;26.72;49.55;100810.17;1774603;79;20195;-58
2021/07/22 07:06:32;;;;;;;;;;;;;;;26.73;49.56;100813.78;1776234;79;20523;-59
2021/07/22 07:08:58;;;;;;;;;;;;;;;26.71;49.57;100812.73;1773125;79;21137;-58
2021/07/22 07:11:24;;;;;;;;;;;;;;;26.72;49.58;100816.33;1774177;80;20210;-57
2021/07/22 07:13:50;;;;;;;;;;;;;;;26.71;49.58;100812.73;1774958;79;20183;-57
2021/07/22 07:16:16;;;;;;;;;;;;;;;26.72;49.59;100814.36;1771588;80;20681;-58
2021/07/22 07:18:42;;;;;;;;;;;;;;;26.71;49.62;100818.31;1774897;79;20215;-57
2021/07/22 07:21:08;;;;;;;;;;;;;;;26.70;49.64;100815.87;1776721;79;21077;-57
2021/07/22 07:23:35;;;;;;;;;;;;;;;26.72;49.64;100821.92;1775002;80;20166;-58
2021/07/22 07:26:01;;;;;;;;;;;;;;;26.71;49.66;100824.47;1772168;79;20225;-57
2021/07/22 07:28:27;;;;;;;;;;;;;;;26.71;49.68;100818.31;1771831;80;20220;-58
2021/07/22 07:30:53;;;;;;;;;;;;;;;26.71;49.69;100823.89;1771774;79;20418;-57
2021/07/22 07:33:23;;;;;;;;;;;;;;;26.72;49.69;100824.70;1770513;80;21533;-56
2021/07/22 07:35:49;;;;;;;;;;;;;;;26.71;49.72;100821.10;1771247;79;20230;-57
2021/07/22 07:38:16;;;;;;;;;;;;;;;26.72;49.75;100834.48;1775486;79;20251;-57
2021/07/22 07:40:43;;;;;;;;;;;;;;;26.72;49.77;100828.89;1769215;80;20116;-57
2021/07/22 07:43:17;;;;;;;;;;;;;;;26.71;49.78;100834.24;1772767;79;20173;-57
2021/07/22 07:45:43;;;;;;;;;;;;;;;26.72;49.79;100838.08;1774076;79;21967;-58
2021/07/22 07:48:09;;;;;;;;;;;;;;;26.73;49.78;100831.92;1774265;79;20228;-57
2021/07/22 07:50:35;;;;;;;;;;;;;;;26.74;49.80;100833.52;1774608;80;20171;-57
2021/07/22 07:53:12;;;;;;;;;;;;;;;26.74;49.81;100833.52;1773250;80;20202;-57
2021/07/22 07:55:40;;;;;;;;;;;;;;;26.76;49.83;100836.77;1773789;79;20148;-57
2021/07/22 07:58:06;;;;;;;;;;;;;;;26.76;49.83;100835.38;1772737;80;21813;-58
2021/07/22 08:00:32;;;;;;;;;;;;;;;26.75;49.82;100833.17;1773045;79;20195;-57
2021/07/22 08:03:02;;;;;;;;;;;;;;;26.77;49.86;100831.42;1773343;80;20240;-57
2021/07/22 08:05:26;;;;;;;;;;;;;;;26.76;49.87;100834.80;1771390;79;20169;-57
2021/07/22 08:07:52;;;;;;;;;;;;;;;26.77;49.90;100829.45;1772242;79;20221;-57
2021/07/22 08:10:18;;;;;;;;;;;;;;;26.77;49.90;100829.45;1776023;79;21185;-57
2021/07/22 08:12:44;;;;;;;;;;;;;;;26.77;49.91;100833.64;1776847;80;20182;-57
2021/07/22 08:15:11;;;;;;;;;;;;;;;26.78;49.91;100836.63;1782387;79;20402;-57
2021/07/22 08:17:37;;;;;;;;;;;;;;;26.80;49.92;100841.28;1778718;79;20370;-57
2021/07/22 08:20:06;;;;;;;;;;;;;;;26.81;49.93;100836.52;1776955;79;20745;-57
2021/07/22 08:22:35;;;;;;;;;;;;;;;26.80;49.93;100831.52;1776873;79;22095;-57
2021/07/22 08:25:01;;;;;;;;;;;;;;;26.83;49.95;100832.77;1777803;79;20141;-57
2021/07/22 08:27:28;;;;;;;;;;;;;;;26.83;49.95;100829.39;1778643;79;20179;-58
2021/07/22 08:29:54;;;;;;;;;;;;;;;26.83;49.95;100827.99;1775680;80;20433;-57
2021/07/22 08:32:20;;;;;;;;;;;;;;;26.84;49.94;100830.20;1784063;80;20109;-57
2021/07/22 08:34:47;;;;;;;;;;;;;;;26.86;49.96;100838.27;1780516;79;21082;-57
2021/07/22 08:37:13;;;;;;;;;;;;;;;26.87;49.96;100832.88;1779492;79;20168;-57
2021/07/22 08:39:39;;;;;;;;;;;;;;;26.87;49.97;100839.28;1778707;79;20238;-57
2021/07/22 08:42:06;;;;;;;;;;;;;;;26.88;49.96;100831.14;1775905;80;20145;-56
2021/07/22 08:44:37;;;;;;;;;;;;;;;26.89;49.97;100829.16;1775388;79;20140;-57
2021/07/22 08:47:04;;;;;;;;;;;;;;;26.89;49.98;100831.37;1776359;80;21144;-57
2021/07/22 08:49:31;;;;;;;;;;;;;;;26.90;49.96;100823.81;1776559;79;20144;-57
2021/07/22 08:51:57;;;;;;;;;;;;;;;26.90;49.95;100833.00;1779874;80;20250;-58
2021/07/22 08:54:23;;;;;;;;;;;;;;;26.90;49.95;100827.41;1778226;80;20173;-57
2021/07/22 08:56:49;;;;;;;;;;;;;;;26.91;49.95;100829.59;1780065;80;20717;-57
2021/07/22 08:59:15;;;;;;;;;;;;;;;26.90;49.96;100823.23;1783129;80;23295;-57
2021/07/22 09:01:41;;;;;;;;;;;;;;;26.90;49.98;100823.23;1779221;79;20164;-57
2021/07/22 09:04:07;;;;;;;;;;;;;;;26.91;49.97;100822.61;1771672;79;20764;-57
2021/07/22 09:06:33;;;;;;;;;;;;;;;26.92;49.97;100831.22;1778813;79;20540;-57
2021/07/22 09:09:11;;;;;;;;;;;;;;;26.91;49.97;100823.42;1778403;79;20232;-57
2021/07/22 09:11:56;;;;;;;;;;;;;;;26.91;49.98;100824.01;1780319;79;21156;-57
2021/07/22 09:14:23;;;;;;;;;;;;;;;26.91;49.97;100825.41;1776325;79;20171;-57
2021/07/22 09:16:49;;;;;;;;;;;;;;;26.91;49.98;100823.42;1782297;80;20374;-57
2021/07/22 09:19:32;;;;;;;;;;;;;;;26.90;49.99;100819.04;1774921;79;20165;-57
2021/07/22 09:21:59;;;;;;;;;;;;;;;26.91;49.99;100822.61;1781454;80;20137;-57
2021/07/22 09:24:25;;;;;;;;;;;;;;;26.91;49.99;100810.05;1779694;79;21081;-59
2021/07/22 09:26:51;;;;;;;;;;;;;;;26.90;50.02;100810.66;1779855;79;20210;-57
2021/07/22 09:29:17;;;;;;;;;;;;;;;26.90;50.03;100816.25;1773358;79;20270;-57
2021/07/22 09:31:43;;;;;;;;;;;;;;;26.90;50.04;100810.66;1779904;79;20513;-57
2021/07/22 09:34:16;;;;;;;;;;;;;;;26.89;49.97;100809.03;1748636;80;20219;-57
2021/07/22 09:36:42;;;;;;;;;;;;;;;26.87;49.88;100807.17;1778790;80;22152;-57
2021/07/22 09:39:24;;;;;;;;;;;;;;;26.84;49.75;100812.06;1776264;80;20248;-57
2021/07/22 09:42:04;;;;;;;;;;;;;;;26.80;49.69;100804.99;1777249;79;20141;-58
2021/07/22 09:44:33;;;;;;;;;;;;;;;26.79;49.58;100801.16;1774986;79;20318;-58
2021/07/22 09:47:00;;;;;;;;;;;;;;;26.77;49.47;100783.39;1771892;80;20187;-57
2021/07/22 09:49:41;;;;;;;;;;;;;;;26.76;49.36;100790.72;1778430;79;21072;-56
2021/07/22 09:52:20;;;;;;;;;;;;;;;26.75;49.27;100800.25;1772790;79;20133;-58
2021/07/22 09:54:46;;;;;;;;;;;;;;;26.73;49.16;100804.01;1769694;80;20208;-57
2021/07/22 09:57:16;;;;;;;;;;;;;;;26.71;49.17;100793.77;1776189;79;20190;-57
2021/07/22 09:59:43;;;;;;;;;;;;;;;26.71;49.18;100799.36;1777413;80;20191;-57
2021/07/22 10:02:13;;;;;;;;;;;;;;;26.70;49.08;100794.94;1778061;80;21866;-57
2021/07/22 10:04:39;;;;;;;;;;;;;;;26.68;48.99;100793.11;1778242;80;20197;-58
2021/07/22 10:07:05;;;;;;;;;;;;;;;26.67;49.04;100790.89;1777913;79;20278;-60
2021/07/22 10:09:34;;;;;;;;;;;;;;;26.68;48.97;100795.31;1769018;79;20422;-58
2021/07/22 10:12:02;;;;;;;;;;;;;;;26.67;48.87;100797.88;1774895;79;20278;-57
2021/07/22 10:14:28;;;;;;;;;;;;;;;26.67;48.85;100783.92;1774773;79;21118;-57
2021/07/22 10:16:54;;;;;;;;;;;;;;;26.66;48.90;100780.89;1773211;79;20374;-57
2021/07/22 10:19:20;;;;;;;;;;;;;;;26.65;48.79;100780.66;1773807;79;20197;-58
2021/07/22 10:21:46;;;;;;;;;;;;;;;26.65;48.70;100777.88;1776868;79;20212;-57
2021/07/22 10:24:12;;;;;;;;;;;;;;;26.67;48.76;100785.89;1774277;79;20237;-57
2021/07/22 10:26:43;;;;;;;;;;;;;;;26.67;48.74;100774.73;1775982;80;21269;-57
2021/07/22 10:29:09;;;;;;;;;;;;;;;26.68;48.64;100783.34;1766468;79;20323;-58
2021/07/22 10:31:40;;;;;;;;;;;;;;;26.68;48.56;100781.94;1774497;80;20145;-56
2021/07/22 10:34:07;;;;;;;;;;;;;;;26.69;48.64;100787.76;1767329;79;20176;-57
2021/07/22 10:36:33;;;;;;;;;;;;;;;26.68;48.57;100772.98;1773301;79;20312;-57
2021/07/22 10:39:00;;;;;;;;;;;;;;;26.69;48.47;100771.02;1765784;79;21420;-57
2021/07/22 10:41:40;;;;;;;;;;;;;;;26.69;48.47;100784.35;1738239;80;20136;-57
2021/07/22 10:44:22;;;;;;;;;;;;;;;26.69;48.51;100763.42;1767528;79;20437;-57
2021/07/22 10:46:59;;;;;;;;;;;;;;;26.70;48.40;100772.61;1773505;79;20093;-56
2021/07/22 10:49:40;;;;;;;;;;;;;;;26.69;48.28;100764.81;1765953;80;20302;-57
2021/07/22 10:52:07;;;;;;;;;;;;;;;26.69;48.31;100758.45;1785160;78;21208;-57
2021/07/22 10:54:44;;;;;;;;;;;;;;;26.71;48.33;100760.28;1761296;80;21590;-57
2021/07/22 10:57:30;;;;;;;;;;;;;;;26.69;48.22;100765.42;1775354;78;20216;-57
2021/07/22 10:59:56;;;;;;;;;;;;;;;26.70;48.16;100765.63;1782251;78;20523;-56
2021/07/22 11:02:41;;;;;;;;;;;;;;;26.70;48.25;100762.26;1792954;78;20180;-57
2021/07/22 11:05:14;;;;;;;;;;;;;;;26.70;48.16;100758.07;1766705;80;21117;-57
2021/07/22 11:07:39;;;;;;;;;;;;;;;26.69;48.02;100754.27;1747655;80;20219;-57
2021/07/22 11:10:06;;;;;;;;;;;;;;;26.69;48.10;100762.02;1771669;78;20226;-57
2021/07/22 11:12:44;;;;;;;;;;;;;;;26.71;48.09;100751.91;1774320;78;20543;-57
2021/07/22 11:15:11;;;;;;;;;;;;;;;26.70;47.98;100758.66;1771488;78;20229;-57
2021/07/22 11:17:38;;;;;;;;;;;;;;;26.70;47.94;100755.28;1764634;79;20418;-58
2021/07/22 11:20:31;;;;;;;;;;;;;;;26.72;48.03;100755.74;1764234;79;20224;-57
2021/07/22 11:22:57;;;;;;;;;;;;;;;26.73;47.93;100748.19;1760468;79;20221;-57
2021/07/22 11:25:23;;;;;;;;;;;;;;;26.72;47.81;100740.39;1755823;79;20293;-57
2021/07/22 11:27:49;;;;;;;;;;;;;;;26.71;47.72;100749.12;1757998;79;20215;-56
2021/07/22 11:30:17;;;;;;;;;;;;;;;26.72;47.87;100743.19;1755953;79;20799;-56
2021/07/22 11:32:43;;;;;;;;;;;;;;;26.75;47.76;100740.25;1759206;79;20494;-56
2021/07/22 11:35:10;;;;;;;;;;;;;;;26.75;47.60;100741.06;1766184;79;20283;-56
2021/07/22 11:37:36;;;;;;;;;;;;;;;26.75;47.48;100736.06;1765063;79;20487;-56
2021/07/22 11:40:15;;;;;;;;;;;;;;;26.73;47.38;100732.84;1762475;79;20217;-57
2021/07/22 11:42:49;;;;;;;;;;;;;;;26.72;47.30;100734.81;1764450;79;21132;-57
2021/07/22 11:45:15;;;;;;;;;;;;;;;26.74;47.43;100733.03;1766192;79;20167;-57
2021/07/22 11:47:41;;;;;;;;;;;;;;;26.74;47.31;100735.24;1765623;79;20245;-58
2021/07/22 11:50:07;;;;;;;;;;;;;;;26.74;47.19;100721.87;1765021;79;20174;-57
2021/07/22 11:52:35;;;;;;;;;;;;;;;26.73;47.17;100720.27;1765602;79;20452;-57
2021/07/22 11:55:07;;;;;;;;;;;;;;;26.74;47.22;100727.45;1766280;79;21106;-57
2021/07/22 11:57:41;;;;;;;;;;;;;;;26.73;47.08;100721.05;1755263;80;20427;-56
2021/07/22 12:00:14;;;;;;;;;;;;;;;26.73;46.97;100714.70;1752979;80;20184;-57
2021/07/22 12:02:44;;;;;;;;;;;;;;;26.73;47.05;100720.27;1754551;80;20404;-56
2021/07/22 12:05:09;;;;;;;;;;;;;;;26.73;46.97;100718.27;1758792;80;20423;-57
2021/07/22 12:07:35;;;;;;;;;;;;;;;26.71;46.81;100711.44;1756463;80;21208;-56
2021/07/22 12:10:01;;;;;;;;;;;;;;;26.69;46.76;100707.60;1759976;80;20185;-57
2021/07/22 12:12:27;;;;;;;;;;;;;;;26.73;46.75;100706.32;1759349;80;20248;-57
2021/07/22 12:15:09;;;;;;;;;;;;;;;26.76;46.79;100709.78;1763545;80;20182;-56
2021/07/22 12:17:38;;;;;;;;;;;;;;;26.80;46.81;100699.50;1801815;78;20190;-56
2021/07/22 12:20:05;;;;;;;;;;;;;;;26.85;46.80;100704.03;1778020;78;21154;-57
2021/07/22 12:22:32;;;;;;;;;;;;;;;26.86;46.82;100703.68;1772020;78;20441;-57
2021/07/22 12:25:05;;;;;;;;;;;;;;;26.90;46.82;100693.41;1776159;78;20164;-57
2021/07/22 12:27:50;;;;;;;;;;;;;;;26.93;46.80;100691.28;1775159;78;20223;-57
2021/07/22 12:30:17;;;;;;;;;;;;;;;26.95;46.80;100688.91;1777535;78;20129;-57
2021/07/22 12:32:59;;;;;;;;;;;;;;;26.99;46.79;100687.63;1770918;78;21205;-59
2021/07/22 12:35:29;;;;;;;;;;;;;;;27.01;46.79;100679.67;1772466;78;20478;-58